sensor_id;sensor_type;location;lat;lon;timestamp;temperature;humidity
20370;DHT22;10344;47.592;9.600;2022-08-05T00:00:30;23.80;99.90
20370;DHT22;10344;47.592;9.600;2022-08-05T00:02:55;23.70;99.90
20370;DHT22;10344;47.592;9.600;2022-08-05T00:05:21;23.70;99.90
20370;DHT22;10344;47.592;9.600;2022-08-05T00:07:46;23.70;99.90
20370;DHT22;10344;47.592;9.600;2022-08-05T00:10:12;23.60;99.90
20370;DHT22;10344;47.592;9.600;2022-08-05T00:12:40;23.60;99.90
20370;DHT22;10344;47.592;9.600;2022-08-05T00:15:07;23.60;99.90
20370;DHT22;10344;47.592;9.600;2022-08-05T00:17:32;23.60;99.90
20370;DHT22;10344;47.592;9.600;2022-08-05T00:19:58;23.60;99.90
20370;DHT22;10344;47.592;9.600;2022-08-05T00:22:23;23.60;99.90
20370;DHT22;10344;47.592;9.600;2022-08-05T00:24:49;23.50;99.90
20370;DHT22;10344;47.592;9.600;2022-08-05T00:27:14;23.50;99.90
20370;DHT22;10344;47.592;9.600;2022-08-05T00:29:40;23.50;99.90
20370;DHT22;10344;47.592;9.600;2022-08-05T00:32:06;23.50;99.90
20370;DHT22;10344;47.592;9.600;2022-08-05T00:34:33;23.50;99.90
20370;DHT22;10344;47.592;9.600;2022-08-05T00:36:58;23.50;99.90
20370;DHT22;10344;47.592;9.600;2022-08-05T00:39:24;23.40;99.90
20370;DHT22;10344;47.592;9.600;2022-08-05T00:41:49;23.40;99.90
20370;DHT22;10344;47.592;9.600;2022-08-05T00:44:15;23.40;99.90
20370;DHT22;10344;47.592;9.600;2022-08-05T00:46:40;23.30;99.90
20370;DHT22;10344;47.592;9.600;2022-08-05T00:49:06;23.30;99.90
20370;DHT22;10344;47.592;9.600;2022-08-05T00:51:31;23.30;99.90
20370;DHT22;10344;47.592;9.600;2022-08-05T00:53:57;23.30;99.90
20370;DHT22;10344;47.592;9.600;2022-08-05T00:56:22;23.30;99.90
20370;DHT22;10344;47.592;9.600;2022-08-05T00:58:48;23.40;99.90
20370;DHT22;10344;47.592;9.600;2022-08-05T01:01:13;23.40;99.90
20370;DHT22;10344;47.592;9.600;2022-08-05T01:03:42;23.40;99.90
20370;DHT22;10344;47.592;9.600;2022-08-05T01:06:08;23.40;99.90
20370;DHT22;10344;47.592;9.600;2022-08-05T01:08:34;23.50;99.90
20370;DHT22;10344;47.592;9.600;2022-08-05T01:11:01;23.40;99.90
20370;DHT22;10344;47.592;9.600;2022-08-05T01:15:55;23.40;99.90
20370;DHT22;10344;47.592;9.600;2022-08-05T01:18:22;23.30;99.90
20370;DHT22;10344;47.592;9.600;2022-08-05T01:23:42;23.30;99.90
20370;DHT22;10344;47.592;9.600;2022-08-05T01:33:39;23.30;99.90
20370;DHT22;10344;47.592;9.600;2022-08-05T01:36:07;23.30;99.90
20370;DHT22;10344;47.592;9.600;2022-08-05T01:38:34;23.30;99.90
20370;DHT22;10344;47.592;9.600;2022-08-05T01:40:59;23.30;99.90
20370;DHT22;10344;47.592;9.600;2022-08-05T01:43:26;23.30;99.90
20370;DHT22;10344;47.592;9.600;2022-08-05T01:45:52;23.20;99.90
20370;DHT22;10344;47.592;9.600;2022-08-05T01:48:18;23.20;99.90
20370;DHT22;10344;47.592;9.600;2022-08-05T01:50:45;23.20;99.90
20370;DHT22;10344;47.592;9.600;2022-08-05T01:53:12;23.20;99.90
20370;DHT22;10344;47.592;9.600;2022-08-05T01:55:41;23.20;99.90
20370;DHT22;10344;47.592;9.600;2022-08-05T01:58:10;23.20;99.90
20370;DHT22;10344;47.592;9.600;2022-08-05T02:00:39;23.20;99.90
20370;DHT22;10344;47.592;9.600;2022-08-05T02:03:22;23.20;99.90
20370;DHT22;10344;47.592;9.600;2022-08-05T02:05:49;23.10;99.90
20370;DHT22;10344;47.592;9.600;2022-08-05T02:08:14;23.20;99.90
20370;DHT22;10344;47.592;9.600;2022-08-05T02:10:41;23.10;99.90
20370;DHT22;10344;47.592;9.600;2022-08-05T02:13:10;23.10;99.90
20370;DHT22;10344;47.592;9.600;2022-08-05T02:15:40;23.10;99.90
20370;DHT22;10344;47.592;9.600;2022-08-05T02:18:07;23.10;99.90
20370;DHT22;10344;47.592;9.600;2022-08-05T02:20:39;23.00;99.90
20370;DHT22;10344;47.592;9.600;2022-08-05T02:23:06;23.10;99.90
20370;DHT22;10344;47.592;9.600;2022-08-05T02:25:33;23.10;99.90
20370;DHT22;10344;47.592;9.600;2022-08-05T02:28:01;23.10;99.90
20370;DHT22;10344;47.592;9.600;2022-08-05T02:30:49;23.10;99.90
20370;DHT22;10344;47.592;9.600;2022-08-05T02:33:14;23.10;99.90
20370;DHT22;10344;47.592;9.600;2022-08-05T02:35:40;23.20;99.90
20370;DHT22;10344;47.592;9.600;2022-08-05T02:38:06;23.20;99.90
20370;DHT22;10344;47.592;9.600;2022-08-05T02:40:33;23.20;99.90
20370;DHT22;10344;47.592;9.600;2022-08-05T02:42:59;23.20;99.90
20370;DHT22;10344;47.592;9.600;2022-08-05T02:45:24;23.30;99.90
20370;DHT22;10344;47.592;9.600;2022-08-05T02:47:51;23.30;99.90
20370;DHT22;10344;47.592;9.600;2022-08-05T02:50:19;23.30;99.90
20370;DHT22;10344;47.592;9.600;2022-08-05T02:52:46;23.20;99.90
20370;DHT22;10344;47.592;9.600;2022-08-05T02:55:12;23.20;99.90
20370;DHT22;10344;47.592;9.600;2022-08-05T02:57:38;23.20;99.90
20370;DHT22;10344;47.592;9.600;2022-08-05T03:00:04;23.30;99.90
20370;DHT22;10344;47.592;9.600;2022-08-05T03:02:30;23.40;99.90
20370;DHT22;10344;47.592;9.600;2022-08-05T03:04:58;23.50;99.90
20370;DHT22;10344;47.592;9.600;2022-08-05T03:07:24;23.50;99.90
20370;DHT22;10344;47.592;9.600;2022-08-05T03:09:51;23.50;99.90
20370;DHT22;10344;47.592;9.600;2022-08-05T03:12:32;23.70;99.90
20370;DHT22;10344;47.592;9.600;2022-08-05T03:15:01;23.90;99.90
20370;DHT22;10344;47.592;9.600;2022-08-05T03:17:26;24.00;99.90
20370;DHT22;10344;47.592;9.600;2022-08-05T03:19:52;24.00;99.90
20370;DHT22;10344;47.592;9.600;2022-08-05T03:22:18;24.00;99.90
20370;DHT22;10344;47.592;9.600;2022-08-05T03:24:43;24.10;99.90
20370;DHT22;10344;47.592;9.600;2022-08-05T03:27:10;24.10;99.90
20370;DHT22;10344;47.592;9.600;2022-08-05T03:29:35;24.00;99.90
20370;DHT22;10344;47.592;9.600;2022-08-05T03:32:02;24.00;99.90
20370;DHT22;10344;47.592;9.600;2022-08-05T03:34:27;23.90;99.90
20370;DHT22;10344;47.592;9.600;2022-08-05T03:36:53;24.00;99.90
20370;DHT22;10344;47.592;9.600;2022-08-05T03:39:18;24.00;99.90
20370;DHT22;10344;47.592;9.600;2022-08-05T03:41:44;23.90;99.90
20370;DHT22;10344;47.592;9.600;2022-08-05T03:44:10;23.90;99.90
20370;DHT22;10344;47.592;9.600;2022-08-05T03:46:35;23.90;99.90
20370;DHT22;10344;47.592;9.600;2022-08-05T03:49:00;23.90;99.90
20370;DHT22;10344;47.592;9.600;2022-08-05T03:51:30;23.90;99.90
20370;DHT22;10344;47.592;9.600;2022-08-05T03:54:03;23.90;99.90
20370;DHT22;10344;47.592;9.600;2022-08-05T03:56:37;23.80;99.90
20370;DHT22;10344;47.592;9.600;2022-08-05T03:59:12;23.70;99.90
20370;DHT22;10344;47.592;9.600;2022-08-05T04:01:39;23.60;99.90
20370;DHT22;10344;47.592;9.600;2022-08-05T04:04:06;23.40;99.90
20370;DHT22;10344;47.592;9.600;2022-08-05T04:06:32;23.30;99.90
20370;DHT22;10344;47.592;9.600;2022-08-05T04:08:59;23.20;99.90
20370;DHT22;10344;47.592;9.600;2022-08-05T04:11:26;23.10;99.90
20370;DHT22;10344;47.592;9.600;2022-08-05T04:13:52;23.10;99.90
20370;DHT22;10344;47.592;9.600;2022-08-05T04:16:18;23.20;99.90
20370;DHT22;10344;47.592;9.600;2022-08-05T04:18:48;23.20;99.90
20370;DHT22;10344;47.592;9.600;2022-08-05T04:21:16;23.10;99.90
20370;DHT22;10344;47.592;9.600;2022-08-05T04:23:41;23.20;99.90
20370;DHT22;10344;47.592;9.600;2022-08-05T04:26:08;23.20;99.90
20370;DHT22;10344;47.592;9.600;2022-08-05T04:28:33;23.00;99.90
20370;DHT22;10344;47.592;9.600;2022-08-05T04:30:59;23.00;99.90
20370;DHT22;10344;47.592;9.600;2022-08-05T04:33:25;23.00;99.90
20370;DHT22;10344;47.592;9.600;2022-08-05T04:35:51;23.00;99.90
20370;DHT22;10344;47.592;9.600;2022-08-05T04:38:16;23.00;99.90
20370;DHT22;10344;47.592;9.600;2022-08-05T04:40:42;22.90;99.90
20370;DHT22;10344;47.592;9.600;2022-08-05T04:43:07;22.90;99.90
20370;DHT22;10344;47.592;9.600;2022-08-05T04:45:33;23.00;99.90
20370;DHT22;10344;47.592;9.600;2022-08-05T04:48:05;23.10;99.90
20370;DHT22;10344;47.592;9.600;2022-08-05T04:50:36;23.10;99.90
20370;DHT22;10344;47.592;9.600;2022-08-05T04:53:04;23.00;99.90
20370;DHT22;10344;47.592;9.600;2022-08-05T04:55:30;23.00;99.90
20370;DHT22;10344;47.592;9.600;2022-08-05T04:57:55;23.00;99.90
20370;DHT22;10344;47.592;9.600;2022-08-05T05:00:21;23.00;99.90
20370;DHT22;10344;47.592;9.600;2022-08-05T05:02:46;23.00;99.90
20370;DHT22;10344;47.592;9.600;2022-08-05T05:05:12;23.00;99.90
20370;DHT22;10344;47.592;9.600;2022-08-05T05:07:37;23.00;99.90
20370;DHT22;10344;47.592;9.600;2022-08-05T05:10:03;23.10;99.90
20370;DHT22;10344;47.592;9.600;2022-08-05T05:12:30;23.00;99.90
20370;DHT22;10344;47.592;9.600;2022-08-05T05:14:58;23.00;99.90
20370;DHT22;10344;47.592;9.600;2022-08-05T05:17:24;23.10;99.90
20370;DHT22;10344;47.592;9.600;2022-08-05T05:19:51;23.10;99.90
20370;DHT22;10344;47.592;9.600;2022-08-05T05:22:17;23.10;99.90
20370;DHT22;10344;47.592;9.600;2022-08-05T05:24:42;23.10;99.90
20370;DHT22;10344;47.592;9.600;2022-08-05T05:27:10;23.00;99.90
20370;DHT22;10344;47.592;9.600;2022-08-05T05:29:38;23.10;99.90
20370;DHT22;10344;47.592;9.600;2022-08-05T05:32:03;23.00;99.90
20370;DHT22;10344;47.592;9.600;2022-08-05T05:34:29;23.10;99.90
20370;DHT22;10344;47.592;9.600;2022-08-05T05:36:55;23.20;99.90
20370;DHT22;10344;47.592;9.600;2022-08-05T05:39:21;23.20;99.90
20370;DHT22;10344;47.592;9.600;2022-08-05T05:41:46;23.20;99.90
20370;DHT22;10344;47.592;9.600;2022-08-05T05:44:12;23.30;99.90
20370;DHT22;10344;47.592;9.600;2022-08-05T05:46:37;23.40;99.90
20370;DHT22;10344;47.592;9.600;2022-08-05T05:49:03;23.50;99.90
20370;DHT22;10344;47.592;9.600;2022-08-05T05:51:28;23.60;99.90
20370;DHT22;10344;47.592;9.600;2022-08-05T05:53:54;23.70;99.90
20370;DHT22;10344;47.592;9.600;2022-08-05T05:56:21;23.80;99.90
20370;DHT22;10344;47.592;9.600;2022-08-05T05:58:47;23.90;99.90
20370;DHT22;10344;47.592;9.600;2022-08-05T06:01:13;23.90;99.90
20370;DHT22;10344;47.592;9.600;2022-08-05T06:03:42;23.90;99.90
20370;DHT22;10344;47.592;9.600;2022-08-05T06:06:08;24.00;99.90
20370;DHT22;10344;47.592;9.600;2022-08-05T06:08:33;24.10;99.90
20370;DHT22;10344;47.592;9.600;2022-08-05T06:11:01;24.10;99.90
20370;DHT22;10344;47.592;9.600;2022-08-05T06:13:27;24.20;99.90
20370;DHT22;10344;47.592;9.600;2022-08-05T06:15:52;24.30;99.90
20370;DHT22;10344;47.592;9.600;2022-08-05T06:18:18;24.40;99.90
20370;DHT22;10344;47.592;9.600;2022-08-05T06:20:44;24.60;99.90
20370;DHT22;10344;47.592;9.600;2022-08-05T06:23:09;24.80;99.90
20370;DHT22;10344;47.592;9.600;2022-08-05T06:25:35;25.00;99.90
20370;DHT22;10344;47.592;9.600;2022-08-05T06:28:00;25.20;99.90
20370;DHT22;10344;47.592;9.600;2022-08-05T06:30:26;25.40;99.90
20370;DHT22;10344;47.592;9.600;2022-08-05T06:32:52;25.50;99.90
20370;DHT22;10344;47.592;9.600;2022-08-05T06:35:18;25.50;99.90
20370;DHT22;10344;47.592;9.600;2022-08-05T06:37:46;25.50;99.90
20370;DHT22;10344;47.592;9.600;2022-08-05T06:40:15;25.50;99.90
20370;DHT22;10344;47.592;9.600;2022-08-05T06:42:43;25.60;99.90
20370;DHT22;10344;47.592;9.600;2022-08-05T06:45:08;25.70;99.90
20370;DHT22;10344;47.592;9.600;2022-08-05T06:47:34;25.80;99.90
20370;DHT22;10344;47.592;9.600;2022-08-05T06:50:00;25.80;99.90
20370;DHT22;10344;47.592;9.600;2022-08-05T06:52:26;25.80;99.90
20370;DHT22;10344;47.592;9.600;2022-08-05T06:54:51;25.70;99.90
20370;DHT22;10344;47.592;9.600;2022-08-05T06:57:17;25.60;99.90
20370;DHT22;10344;47.592;9.600;2022-08-05T06:59:43;25.60;99.90
20370;DHT22;10344;47.592;9.600;2022-08-05T07:02:09;25.90;99.90
20370;DHT22;10344;47.592;9.600;2022-08-05T07:04:35;26.80;99.90
20370;DHT22;10344;47.592;9.600;2022-08-05T07:07:01;28.10;99.90
20370;DHT22;10344;47.592;9.600;2022-08-05T07:09:26;29.20;99.90
20370;DHT22;10344;47.592;9.600;2022-08-05T07:11:54;30.50;99.90
20370;DHT22;10344;47.592;9.600;2022-08-05T07:14:20;32.10;99.90
20370;DHT22;10344;47.592;9.600;2022-08-05T07:17:05;32.80;99.90
20370;DHT22;10344;47.592;9.600;2022-08-05T07:19:30;33.80;99.90
20370;DHT22;10344;47.592;9.600;2022-08-05T07:21:56;34.60;99.90
20370;DHT22;10344;47.592;9.600;2022-08-05T07:24:23;35.50;99.90
20370;DHT22;10344;47.592;9.600;2022-08-05T07:26:49;36.20;99.90
20370;DHT22;10344;47.592;9.600;2022-08-05T07:29:15;36.40;99.90
20370;DHT22;10344;47.592;9.600;2022-08-05T07:31:40;36.70;99.90
20370;DHT22;10344;47.592;9.600;2022-08-05T07:34:06;37.10;99.90
20370;DHT22;10344;47.592;9.600;2022-08-05T07:36:34;36.70;99.90
20370;DHT22;10344;47.592;9.600;2022-08-05T07:39:00;36.80;99.90
20370;DHT22;10344;47.592;9.600;2022-08-05T07:41:27;37.20;99.00
20370;DHT22;10344;47.592;9.600;2022-08-05T07:43:56;37.40;99.90
20370;DHT22;10344;47.592;9.600;2022-08-05T07:46:27;37.70;99.90
20370;DHT22;10344;47.592;9.600;2022-08-05T07:48:54;38.10;99.60
20370;DHT22;10344;47.592;9.600;2022-08-05T07:51:20;38.00;97.70
20370;DHT22;10344;47.592;9.600;2022-08-05T07:53:45;38.10;95.60
20370;DHT22;10344;47.592;9.600;2022-08-05T07:56:11;37.90;95.50
20370;DHT22;10344;47.592;9.600;2022-08-05T07:58:36;37.80;95.50
20370;DHT22;10344;47.592;9.600;2022-08-05T08:01:05;37.40;97.80
20370;DHT22;10344;47.592;9.600;2022-08-05T08:03:30;37.30;99.50
20370;DHT22;10344;47.592;9.600;2022-08-05T08:05:56;37.10;98.20
20370;DHT22;10344;47.592;9.600;2022-08-05T08:08:22;37.00;94.10
20370;DHT22;10344;47.592;9.600;2022-08-05T08:10:47;37.30;95.50
20370;DHT22;10344;47.592;9.600;2022-08-05T08:13:16;37.30;93.90
20370;DHT22;10344;47.592;9.600;2022-08-05T08:15:42;37.40;93.50
20370;DHT22;10344;47.592;9.600;2022-08-05T08:18:07;37.60;94.40
20370;DHT22;10344;47.592;9.600;2022-08-05T08:20:33;37.60;95.50
20370;DHT22;10344;47.592;9.600;2022-08-05T08:22:59;37.30;91.90
20370;DHT22;10344;47.592;9.600;2022-08-05T08:25:26;37.50;93.40
20370;DHT22;10344;47.592;9.600;2022-08-05T08:27:53;37.20;93.60
20370;DHT22;10344;47.592;9.600;2022-08-05T08:30:19;37.30;95.00
20370;DHT22;10344;47.592;9.600;2022-08-05T08:32:47;37.50;93.70
20370;DHT22;10344;47.592;9.600;2022-08-05T08:35:13;37.70;92.80
20370;DHT22;10344;47.592;9.600;2022-08-05T08:37:39;37.70;93.50
20370;DHT22;10344;47.592;9.600;2022-08-05T08:40:05;37.60;90.70
20370;DHT22;10344;47.592;9.600;2022-08-05T08:42:31;37.60;91.40
20370;DHT22;10344;47.592;9.600;2022-08-05T08:44:59;37.50;92.20
20370;DHT22;10344;47.592;9.600;2022-08-05T08:47:26;37.10;91.80
20370;DHT22;10344;47.592;9.600;2022-08-05T08:49:54;37.10;94.50
20370;DHT22;10344;47.592;9.600;2022-08-05T08:52:29;37.20;91.80
20370;DHT22;10344;47.592;9.600;2022-08-05T08:54:55;37.10;91.00
20370;DHT22;10344;47.592;9.600;2022-08-05T08:57:21;37.00;90.00
20370;DHT22;10344;47.592;9.600;2022-08-05T08:59:48;36.60;90.30
20370;DHT22;10344;47.592;9.600;2022-08-05T09:02:14;36.70;90.70
20370;DHT22;10344;47.592;9.600;2022-08-05T09:04:40;36.80;90.40
20370;DHT22;10344;47.592;9.600;2022-08-05T09:07:08;36.30;90.70
20370;DHT22;10344;47.592;9.600;2022-08-05T09:09:39;36.50;91.60
20370;DHT22;10344;47.592;9.600;2022-08-05T09:12:08;36.90;91.30
20370;DHT22;10344;47.592;9.600;2022-08-05T09:14:34;37.00;90.50
20370;DHT22;10344;47.592;9.600;2022-08-05T09:17:02;37.20;91.10
20370;DHT22;10344;47.592;9.600;2022-08-05T09:19:28;36.90;90.10
20370;DHT22;10344;47.592;9.600;2022-08-05T09:21:54;36.60;90.30
20370;DHT22;10344;47.592;9.600;2022-08-05T09:24:20;36.70;91.10
20370;DHT22;10344;47.592;9.600;2022-08-05T09:26:49;37.10;90.70
20370;DHT22;10344;47.592;9.600;2022-08-05T09:29:15;37.40;90.90
20370;DHT22;10344;47.592;9.600;2022-08-05T09:31:41;37.30;92.30
20370;DHT22;10344;47.592;9.600;2022-08-05T09:34:10;37.20;91.20
20370;DHT22;10344;47.592;9.600;2022-08-05T09:39:11;37.20;88.10
20370;DHT22;10344;47.592;9.600;2022-08-05T09:41:59;36.90;87.90
20370;DHT22;10344;47.592;9.600;2022-08-05T09:44:40;36.50;90.20
20370;DHT22;10344;47.592;9.600;2022-08-05T09:49:41;35.00;93.40
20370;DHT22;10344;47.592;9.600;2022-08-05T09:52:31;34.70;92.10
20370;DHT22;10344;47.592;9.600;2022-08-05T09:57:41;34.00;92.00
20370;DHT22;10344;47.592;9.600;2022-08-05T10:02:37;33.90;93.70
20370;DHT22;10344;47.592;9.600;2022-08-05T10:05:04;34.10;94.00
20370;DHT22;10344;47.592;9.600;2022-08-05T10:07:49;34.50;93.20
20370;DHT22;10344;47.592;9.600;2022-08-05T10:10:16;34.50;92.90
20370;DHT22;10344;47.592;9.600;2022-08-05T10:12:46;34.80;92.50
20370;DHT22;10344;47.592;9.600;2022-08-05T10:15:13;35.00;92.10
20370;DHT22;10344;47.592;9.600;2022-08-05T10:17:39;35.20;92.30
20370;DHT22;10344;47.592;9.600;2022-08-05T10:20:05;35.30;93.20
20370;DHT22;10344;47.592;9.600;2022-08-05T10:22:31;35.70;90.50
20370;DHT22;10344;47.592;9.600;2022-08-05T10:24:56;35.50;90.60
20370;DHT22;10344;47.592;9.600;2022-08-05T10:27:24;35.30;91.80
20370;DHT22;10344;47.592;9.600;2022-08-05T10:29:51;35.70;92.40
20370;DHT22;10344;47.592;9.600;2022-08-05T10:32:16;35.90;92.20
20370;DHT22;10344;47.592;9.600;2022-08-05T10:34:43;36.00;94.10
20370;DHT22;10344;47.592;9.600;2022-08-05T10:37:11;36.20;91.80
20370;DHT22;10344;47.592;9.600;2022-08-05T10:39:37;36.40;91.90
20370;DHT22;10344;47.592;9.600;2022-08-05T10:42:10;36.20;92.20
20370;DHT22;10344;47.592;9.600;2022-08-05T10:44:42;35.70;91.40
20370;DHT22;10344;47.592;9.600;2022-08-05T10:47:12;35.20;92.40
20370;DHT22;10344;47.592;9.600;2022-08-05T10:55:04;34.70;93.40
20370;DHT22;10344;47.592;9.600;2022-08-05T10:57:31;34.90;92.10
20370;DHT22;10344;47.592;9.600;2022-08-05T11:00:29;35.40;92.90
20370;DHT22;10344;47.592;9.600;2022-08-05T11:05:34;35.90;92.20
20370;DHT22;10344;47.592;9.600;2022-08-05T11:08:00;35.80;91.40
20370;DHT22;10344;47.592;9.600;2022-08-05T11:10:29;35.70;92.10
20370;DHT22;10344;47.592;9.600;2022-08-05T11:12:55;35.70;92.40
20370;DHT22;10344;47.592;9.600;2022-08-05T11:15:22;35.90;91.30
20370;DHT22;10344;47.592;9.600;2022-08-05T11:17:52;35.80;92.90
20370;DHT22;10344;47.592;9.600;2022-08-05T11:25:58;35.50;92.40
20370;DHT22;10344;47.592;9.600;2022-08-05T11:33:35;35.90;93.80
20370;DHT22;10344;47.592;9.600;2022-08-05T11:36:02;36.20;93.60
20370;DHT22;10344;47.592;9.600;2022-08-05T11:39:10;36.30;93.30
20370;DHT22;10344;47.592;9.600;2022-08-05T11:41:27;36.50;92.40
20370;DHT22;10344;47.592;9.600;2022-08-05T11:43:59;36.70;92.00
20370;DHT22;10344;47.592;9.600;2022-08-05T11:48:51;36.20;92.50
20370;DHT22;10344;47.592;9.600;2022-08-05T11:51:16;36.30;91.00
20370;DHT22;10344;47.592;9.600;2022-08-05T11:53:42;35.50;91.50
20370;DHT22;10344;47.592;9.600;2022-08-05T11:56:08;35.70;92.30
20370;DHT22;10344;47.592;9.600;2022-08-05T11:58:36;35.80;93.20
20370;DHT22;10344;47.592;9.600;2022-08-05T12:01:12;35.80;92.80
20370;DHT22;10344;47.592;9.600;2022-08-05T12:06:12;34.30;93.30
20370;DHT22;10344;47.592;9.600;2022-08-05T12:08:45;34.40;95.20
20370;DHT22;10344;47.592;9.600;2022-08-05T12:11:11;35.00;93.30
20370;DHT22;10344;47.592;9.600;2022-08-05T12:13:40;35.30;92.60
20370;DHT22;10344;47.592;9.600;2022-08-05T12:16:17;35.40;92.90
20370;DHT22;10344;47.592;9.600;2022-08-05T12:18:42;35.10;92.80
20370;DHT22;10344;47.592;9.600;2022-08-05T12:21:10;34.70;93.60
20370;DHT22;10344;47.592;9.600;2022-08-05T12:23:36;34.70;94.30
20370;DHT22;10344;47.592;9.600;2022-08-05T12:26:01;34.40;94.20
20370;DHT22;10344;47.592;9.600;2022-08-05T12:28:30;34.30;94.40
20370;DHT22;10344;47.592;9.600;2022-08-05T12:30:56;34.50;94.10
20370;DHT22;10344;47.592;9.600;2022-08-05T12:33:23;34.60;93.40
20370;DHT22;10344;47.592;9.600;2022-08-05T12:35:48;34.50;93.80
20370;DHT22;10344;47.592;9.600;2022-08-05T12:38:14;34.50;94.80
20370;DHT22;10344;47.592;9.600;2022-08-05T12:40:39;34.80;96.40
20370;DHT22;10344;47.592;9.600;2022-08-05T12:43:05;35.30;95.40
20370;DHT22;10344;47.592;9.600;2022-08-05T12:45:31;35.80;94.20
20370;DHT22;10344;47.592;9.600;2022-08-05T12:47:56;36.10;94.00
20370;DHT22;10344;47.592;9.600;2022-08-05T12:50:22;36.30;94.40
20370;DHT22;10344;47.592;9.600;2022-08-05T12:52:55;36.60;92.80
20370;DHT22;10344;47.592;9.600;2022-08-05T12:55:26;36.30;93.10
20370;DHT22;10344;47.592;9.600;2022-08-05T12:57:54;35.50;93.70
20370;DHT22;10344;47.592;9.600;2022-08-05T13:00:24;34.90;93.40
20370;DHT22;10344;47.592;9.600;2022-08-05T13:02:51;34.60;92.90
20370;DHT22;10344;47.592;9.600;2022-08-05T13:05:17;34.50;95.20
20370;DHT22;10344;47.592;9.600;2022-08-05T13:07:45;34.50;94.10
20370;DHT22;10344;47.592;9.600;2022-08-05T13:10:12;34.80;93.80
20370;DHT22;10344;47.592;9.600;2022-08-05T13:12:42;35.00;93.10
20370;DHT22;10344;47.592;9.600;2022-08-05T13:15:11;34.80;93.20
20370;DHT22;10344;47.592;9.600;2022-08-05T13:17:39;34.70;94.10
20370;DHT22;10344;47.592;9.600;2022-08-05T13:20:06;34.60;93.60
20370;DHT22;10344;47.592;9.600;2022-08-05T13:22:33;34.50;93.70
20370;DHT22;10344;47.592;9.600;2022-08-05T13:25:00;34.50;94.10
20370;DHT22;10344;47.592;9.600;2022-08-05T13:27:29;34.70;94.50
20370;DHT22;10344;47.592;9.600;2022-08-05T13:29:55;34.80;94.00
20370;DHT22;10344;47.592;9.600;2022-08-05T13:32:20;34.80;93.60
20370;DHT22;10344;47.592;9.600;2022-08-05T13:34:47;34.50;93.90
20370;DHT22;10344;47.592;9.600;2022-08-05T13:37:13;34.60;93.30
20370;DHT22;10344;47.592;9.600;2022-08-05T13:39:39;34.60;93.70
20370;DHT22;10344;47.592;9.600;2022-08-05T13:42:04;34.80;93.40
20370;DHT22;10344;47.592;9.600;2022-08-05T13:44:30;34.80;93.40
20370;DHT22;10344;47.592;9.600;2022-08-05T13:46:55;34.60;94.70
20370;DHT22;10344;47.592;9.600;2022-08-05T13:49:21;34.50;93.80
20370;DHT22;10344;47.592;9.600;2022-08-05T13:51:46;34.50;93.30
20370;DHT22;10344;47.592;9.600;2022-08-05T13:54:12;34.30;93.20
20370;DHT22;10344;47.592;9.600;2022-08-05T13:56:37;34.00;93.20
20370;DHT22;10344;47.592;9.600;2022-08-05T13:59:06;34.10;93.80
20370;DHT22;10344;47.592;9.600;2022-08-05T14:01:31;34.20;94.20
20370;DHT22;10344;47.592;9.600;2022-08-05T14:03:59;34.50;93.60
20370;DHT22;10344;47.592;9.600;2022-08-05T14:06:43;34.40;93.00
20370;DHT22;10344;47.592;9.600;2022-08-05T14:09:08;34.30;93.00
20370;DHT22;10344;47.592;9.600;2022-08-05T14:11:36;34.30;92.30
20370;DHT22;10344;47.592;9.600;2022-08-05T14:14:06;34.10;93.10
20370;DHT22;10344;47.592;9.600;2022-08-05T14:16:34;34.10;92.60
20370;DHT22;10344;47.592;9.600;2022-08-05T14:18:59;34.00;92.80
20370;DHT22;10344;47.592;9.600;2022-08-05T14:21:25;33.90;93.50
20370;DHT22;10344;47.592;9.600;2022-08-05T14:23:51;33.60;93.80
20370;DHT22;10344;47.592;9.600;2022-08-05T14:26:17;33.60;93.50
20370;DHT22;10344;47.592;9.600;2022-08-05T14:28:43;33.60;93.60
20370;DHT22;10344;47.592;9.600;2022-08-05T14:31:09;33.40;93.60
20370;DHT22;10344;47.592;9.600;2022-08-05T14:33:34;33.30;93.20
20370;DHT22;10344;47.592;9.600;2022-08-05T14:36:00;33.20;93.30
20370;DHT22;10344;47.592;9.600;2022-08-05T14:38:26;33.10;93.90
20370;DHT22;10344;47.592;9.600;2022-08-05T14:40:52;33.10;93.60
20370;DHT22;10344;47.592;9.600;2022-08-05T14:43:17;33.10;93.70
20370;DHT22;10344;47.592;9.600;2022-08-05T14:45:43;33.30;93.50
20370;DHT22;10344;47.592;9.600;2022-08-05T14:48:08;33.20;94.20
20370;DHT22;10344;47.592;9.600;2022-08-05T14:50:34;33.20;94.40
20370;DHT22;10344;47.592;9.600;2022-08-05T14:53:00;33.20;93.60
20370;DHT22;10344;47.592;9.600;2022-08-05T14:55:26;33.20;93.90
20370;DHT22;10344;47.592;9.600;2022-08-05T14:57:53;33.10;93.60
20370;DHT22;10344;47.592;9.600;2022-08-05T15:00:18;33.00;94.40
20370;DHT22;10344;47.592;9.600;2022-08-05T15:02:45;33.00;94.10
20370;DHT22;10344;47.592;9.600;2022-08-05T15:05:11;33.00;93.10
20370;DHT22;10344;47.592;9.600;2022-08-05T15:07:38;33.00;92.90
20370;DHT22;10344;47.592;9.600;2022-08-05T15:10:04;33.00;93.30
20370;DHT22;10344;47.592;9.600;2022-08-05T15:12:29;32.90;93.60
20370;DHT22;10344;47.592;9.600;2022-08-05T15:14:55;32.80;92.90
20370;DHT22;10344;47.592;9.600;2022-08-05T15:17:23;32.60;93.50
20370;DHT22;10344;47.592;9.600;2022-08-05T15:19:48;32.40;94.30
20370;DHT22;10344;47.592;9.600;2022-08-05T15:22:14;32.40;95.00
20370;DHT22;10344;47.592;9.600;2022-08-05T15:24:40;32.30;96.30
20370;DHT22;10344;47.592;9.600;2022-08-05T15:27:05;32.20;95.90
20370;DHT22;10344;47.592;9.600;2022-08-05T15:29:31;32.00;96.40
20370;DHT22;10344;47.592;9.600;2022-08-05T15:31:57;31.90;95.60
20370;DHT22;10344;47.592;9.600;2022-08-05T15:34:22;31.90;99.90
20370;DHT22;10344;47.592;9.600;2022-08-05T15:36:48;31.60;99.90
20370;DHT22;10344;47.592;9.600;2022-08-05T15:39:13;31.30;99.90
20370;DHT22;10344;47.592;9.600;2022-08-05T15:41:39;31.00;99.90
20370;DHT22;10344;47.592;9.600;2022-08-05T15:44:07;31.00;99.90
20370;DHT22;10344;47.592;9.600;2022-08-05T15:46:33;30.70;99.90
20370;DHT22;10344;47.592;9.600;2022-08-05T15:48:58;30.60;99.90
20370;DHT22;10344;47.592;9.600;2022-08-05T15:51:28;30.50;99.90
20370;DHT22;10344;47.592;9.600;2022-08-05T15:53:54;30.30;99.90
20370;DHT22;10344;47.592;9.600;2022-08-05T15:56:20;30.10;99.90
20370;DHT22;10344;47.592;9.600;2022-08-05T15:58:47;30.00;99.90
20370;DHT22;10344;47.592;9.600;2022-08-05T16:01:13;30.10;99.90
20370;DHT22;10344;47.592;9.600;2022-08-05T16:03:39;30.10;99.90
20370;DHT22;10344;47.592;9.600;2022-08-05T16:06:04;29.90;99.90
20370;DHT22;10344;47.592;9.600;2022-08-05T16:08:30;29.70;99.90
20370;DHT22;10344;47.592;9.600;2022-08-05T16:10:55;29.70;99.90
20370;DHT22;10344;47.592;9.600;2022-08-05T16:13:21;29.60;99.90
20370;DHT22;10344;47.592;9.600;2022-08-05T16:15:46;29.50;99.90